createdAt,value
2018-12-13T00:00:12.300Z,3.218688
2018-12-13T00:00:24.666Z,3.218688
2018-12-13T00:00:37.034Z,3.218688
2018-12-13T00:00:49.504Z,3.218688
2018-12-13T00:01:01.865Z,3.218688
2018-12-13T00:01:14.217Z,8.04672
2018-12-13T00:01:26.613Z,8.04672
2018-12-13T00:01:39.140Z,8.04672
2018-12-13T00:01:51.493Z,8.04672
2018-12-13T00:02:03.846Z,8.04672
2018-12-13T00:02:16.223Z,1.609344
2018-12-13T00:02:28.574Z,1.609344
2018-12-13T00:02:41.066Z,1.609344
2018-12-13T00:02:54.846Z,3.218688
2018-12-13T00:03:07.250Z,6.437376
2018-12-13T00:03:19.623Z,9.656064
2018-12-13T00:03:31.967Z,9.656064
2018-12-13T00:03:44.314Z,9.656064
2018-12-13T00:03:56.648Z,9.656064
2018-12-13T00:04:09.018Z,6.437376
2018-12-13T00:04:21.375Z,6.437376
2018-12-13T00:04:33.721Z,8.04672
2018-12-13T00:04:46.082Z,9.656064
2018-12-13T00:04:58.437Z,9.656064
2018-12-13T00:05:10.806Z,8.04672
2018-12-13T00:05:23.231Z,8.04672
2018-12-13T00:05:35.590Z,8.04672
2018-12-13T00:05:47.938Z,8.04672
2018-12-13T00:06:00.288Z,8.04672
2018-12-13T00:06:12.661Z,1.609344
2018-12-13T00:06:25.025Z,3.218688
2018-12-13T00:06:43.496Z,4.828032
2018-12-13T00:06:55.890Z,8.04672
2018-12-13T00:07:08.224Z,4.828032
2018-12-13T00:07:20.573Z,4.828032
2018-12-13T00:07:32.930Z,4.828032
2018-12-13T00:07:45.283Z,4.828032
2018-12-13T00:07:57.636Z,8.04672
2018-12-13T00:08:10.004Z,8.04672
2018-12-13T00:08:22.371Z,8.04672
2018-12-13T00:08:34.734Z,8.04672
2018-12-13T00:08:47.081Z,8.04672
2018-12-13T00:08:59.464Z,8.04672
2018-12-13T00:09:11.877Z,4.828032
2018-12-13T00:09:24.212Z,8.04672
2018-12-13T00:09:36.617Z,9.656064
2018-12-13T00:09:49.033Z,9.656064
2018-12-13T00:10:01.379Z,9.656064
2018-12-13T00:10:13.734Z,3.218688
2018-12-13T00:10:26.371Z,8.04672
2018-12-13T00:10:38.782Z,9.656064
2018-12-13T00:10:51.132Z,9.656064
2018-12-13T00:11:03.478Z,9.656064
2018-12-13T00:11:15.833Z,9.656064
2018-12-13T00:11:28.250Z,9.656064
2018-12-13T00:11:40.651Z,9.656064
2018-12-13T00:11:52.983Z,9.656064
2018-12-13T00:12:05.379Z,1.609344
2018-12-13T00:12:17.713Z,3.218688
2018-12-13T00:12:30.041Z,3.218688
2018-12-13T00:12:42.394Z,3.218688
2018-12-13T00:12:54.746Z,3.218688
2018-12-13T00:13:07.103Z,0
2018-12-13T00:13:19.461Z,1.609344
2018-12-13T00:13:31.806Z,1.609344
2018-12-13T00:13:44.204Z,6.437376
2018-12-13T00:13:56.535Z,6.437376
2018-12-13T00:14:08.902Z,3.218688
2018-12-13T00:14:21.422Z,3.218688
2018-12-13T00:14:33.773Z,9.656064
2018-12-13T00:14:46.108Z,9.656064
2018-12-13T00:14:58.444Z,9.656064
2018-12-13T00:15:10.812Z,6.437376
2018-12-13T00:15:23.162Z,6.437376
2018-12-13T00:15:35.503Z,8.04672
2018-12-13T00:15:47.861Z,9.656064
2018-12-13T00:16:00.324Z,9.656064
2018-12-13T00:16:12.690Z,3.218688
2018-12-13T00:16:25.054Z,3.218688
2018-12-13T00:16:38.479Z,3.218688
2018-12-13T00:16:50.827Z,3.218688
2018-12-13T00:17:03.177Z,3.218688
2018-12-13T00:17:15.604Z,1.609344
2018-12-13T00:17:27.954Z,3.218688
2018-12-13T00:17:40.366Z,3.218688
2018-12-13T00:17:52.709Z,3.218688
2018-12-13T00:18:05.065Z,1.609344
2018-12-13T00:18:17.544Z,1.609344
2018-12-13T00:18:29.900Z,3.218688
2018-12-13T00:18:42.395Z,3.218688
2018-12-13T00:18:54.741Z,3.218688
2018-12-13T00:19:07.096Z,3.218688
2018-12-13T00:19:19.446Z,3.218688
2018-12-13T00:19:31.799Z,3.218688
2018-12-13T00:19:44.149Z,3.218688
2018-12-13T00:19:56.620Z,3.218688
2018-12-13T00:20:08.964Z,1.609344
2018-12-13T00:20:21.323Z,1.609344
2018-12-13T00:20:33.670Z,1.609344
2018-12-13T00:20:46.039Z,1.609344
2018-12-13T00:20:58.417Z,1.609344
2018-12-13T00:21:10.760Z,3.218688
2018-12-13T00:21:23.104Z,3.218688
2018-12-13T00:21:35.594Z,3.218688
2018-12-13T00:21:48.012Z,3.218688
2018-12-13T00:22:00.368Z,3.218688
2018-12-13T00:22:12.761Z,3.218688
2018-12-13T00:22:25.099Z,3.218688
2018-12-13T00:22:37.432Z,6.437376
2018-12-13T00:22:49.787Z,6.437376
2018-12-13T00:23:02.134Z,6.437376
2018-12-13T00:23:14.530Z,3.218688
2018-12-13T00:23:26.879Z,3.218688
2018-12-13T00:23:39.226Z,3.218688
2018-12-13T00:23:51.563Z,3.218688
2018-12-13T00:24:03.912Z,3.218688
2018-12-13T00:24:16.278Z,3.218688
2018-12-13T00:24:28.613Z,3.218688
2018-12-13T00:24:40.958Z,3.218688
2018-12-13T00:24:53.293Z,3.218688
2018-12-13T00:25:05.646Z,0
2018-12-13T00:25:18.019Z,0
2018-12-13T00:25:30.368Z,3.218688
2018-12-13T00:25:42.723Z,8.04672
2018-12-13T00:25:55.125Z,8.04672
2018-12-13T00:26:07.457Z,3.218688
2018-12-13T00:26:19.814Z,3.218688
2018-12-13T00:26:32.376Z,3.218688
2018-12-13T00:26:44.744Z,3.218688
2018-12-13T00:26:57.088Z,4.828032
2018-12-13T00:27:09.429Z,4.828032
2018-12-13T00:27:21.770Z,4.828032
2018-12-13T00:27:34.103Z,4.828032
2018-12-13T00:27:46.441Z,4.828032
2018-12-13T00:27:58.813Z,4.828032
2018-12-13T00:28:11.193Z,1.609344
2018-12-13T00:28:23.596Z,1.609344
2018-12-13T00:28:35.929Z,1.609344
2018-12-13T00:28:48.311Z,3.218688
2018-12-13T00:29:00.661Z,3.218688
2018-12-13T00:29:13.206Z,3.218688
2018-12-13T00:29:25.544Z,3.218688
2018-12-13T00:29:37.883Z,3.218688
2018-12-13T00:29:50.435Z,3.218688
2018-12-13T00:30:02.761Z,3.218688
2018-12-13T00:30:15.152Z,3.218688
2018-12-13T00:30:27.555Z,3.218688
2018-12-13T00:30:40.138Z,3.218688
2018-12-13T00:30:52.488Z,6.437376
2018-12-13T00:31:04.852Z,6.437376
2018-12-13T00:31:17.387Z,6.437376
2018-12-13T00:31:29.736Z,6.437376
2018-12-13T00:31:42.090Z,6.437376
2018-12-13T00:31:54.421Z,6.437376
2018-12-13T00:32:06.778Z,1.609344
2018-12-13T00:32:19.146Z,1.609344
2018-12-13T00:32:31.504Z,3.218688
2018-12-13T00:32:43.853Z,3.218688
2018-12-13T00:32:56.212Z,3.218688
2018-12-13T00:33:08.617Z,1.609344
2018-12-13T00:33:21.176Z,1.609344
2018-12-13T00:33:33.517Z,1.609344
2018-12-13T00:33:45.879Z,1.609344
2018-12-13T00:33:58.223Z,1.609344
2018-12-13T00:34:10.563Z,3.218688
2018-12-13T00:34:22.899Z,4.828032
2018-12-13T00:34:35.424Z,4.828032
2018-12-13T00:34:47.796Z,4.828032
2018-12-13T00:35:00.145Z,4.828032
2018-12-13T00:35:12.488Z,1.609344
2018-12-13T00:35:24.844Z,1.609344
2018-12-13T00:35:37.210Z,1.609344
2018-12-13T00:35:49.750Z,1.609344
2018-12-13T00:36:02.111Z,1.609344
2018-12-13T00:36:14.504Z,1.609344
2018-12-13T00:36:27.003Z,1.609344
2018-12-13T00:36:45.279Z,1.609344
2018-12-13T00:36:57.644Z,1.609344
2018-12-13T00:37:09.995Z,1.609344
2018-12-13T00:37:22.362Z,1.609344
2018-12-13T00:37:34.989Z,1.609344
2018-12-13T00:37:47.347Z,1.609344
2018-12-13T00:37:59.791Z,3.218688
2018-12-13T00:38:12.160Z,3.218688
2018-12-13T00:38:24.530Z,8.04672
2018-12-13T00:38:38.109Z,9.656064
2018-12-13T00:38:50.483Z,9.656064
2018-12-13T00:39:02.864Z,9.656064
2018-12-13T00:39:15.223Z,4.828032
2018-12-13T00:39:27.606Z,4.828032
2018-12-13T00:39:40.012Z,4.828032
2018-12-13T00:39:52.442Z,6.437376
2018-12-13T00:40:04.800Z,1.609344
2018-12-13T00:40:17.144Z,4.828032
2018-12-13T00:40:29.521Z,6.437376
2018-12-13T00:40:41.881Z,6.437376
2018-12-13T00:40:55.242Z,6.437376
2018-12-13T00:41:07.857Z,1.609344
2018-12-13T00:41:20.212Z,6.437376
2018-12-13T00:41:32.544Z,6.437376
2018-12-13T00:41:44.893Z,6.437376
2018-12-13T00:41:57.239Z,6.437376
2018-12-13T00:42:09.708Z,6.437376
2018-12-13T00:42:22.052Z,6.437376
2018-12-13T00:42:34.406Z,6.437376
2018-12-13T00:42:46.744Z,6.437376
2018-12-13T00:42:59.094Z,6.437376
2018-12-13T00:43:11.448Z,0
2018-12-13T00:43:23.792Z,1.609344
2018-12-13T00:43:36.149Z,1.609344
2018-12-13T00:43:48.491Z,1.609344
2018-12-13T00:44:00.833Z,1.609344
2018-12-13T00:44:13.183Z,1.609344
2018-12-13T00:44:25.536Z,1.609344
2018-12-13T00:44:37.878Z,1.609344
2018-12-13T00:44:50.236Z,1.609344
2018-12-13T00:45:02.597Z,1.609344
2018-12-13T00:45:14.945Z,1.609344
2018-12-13T00:45:27.393Z,1.609344
2018-12-13T00:45:39.743Z,1.609344
2018-12-13T00:45:52.090Z,1.609344
2018-12-13T00:46:04.426Z,1.609344
2018-12-13T00:46:16.769Z,3.218688
2018-12-13T00:46:29.113Z,3.218688
2018-12-13T00:46:41.459Z,3.218688
2018-12-13T00:46:53.803Z,3.218688
2018-12-13T00:47:06.161Z,1.609344
2018-12-13T00:47:18.520Z,3.218688
2018-12-13T00:47:31.044Z,3.218688
2018-12-13T00:47:43.399Z,3.218688
2018-12-13T00:47:55.749Z,3.218688
2018-12-13T00:48:08.084Z,3.218688
2018-12-13T00:48:20.424Z,3.218688
2018-12-13T00:48:32.787Z,3.218688
2018-12-13T00:48:45.146Z,3.218688
2018-12-13T00:48:57.482Z,3.218688
2018-12-13T00:49:09.892Z,1.609344
2018-12-13T00:49:22.275Z,3.218688
2018-12-13T00:49:34.625Z,3.218688
2018-12-13T00:49:46.965Z,3.218688
2018-12-13T00:49:59.367Z,3.218688
2018-12-13T00:50:11.817Z,3.218688
2018-12-13T00:50:24.169Z,9.656064
2018-12-13T00:50:36.521Z,9.656064
2018-12-13T00:50:48.869Z,9.656064
2018-12-13T00:51:01.208Z,9.656064
2018-12-13T00:51:13.557Z,6.437376
2018-12-13T00:51:25.901Z,8.04672
2018-12-13T00:51:38.251Z,8.04672
2018-12-13T00:51:50.603Z,8.04672
2018-12-13T00:52:03.107Z,8.04672
2018-12-13T00:52:15.455Z,6.437376
2018-12-13T00:52:27.790Z,6.437376
2018-12-13T00:52:40.126Z,6.437376
2018-12-13T00:52:52.461Z,6.437376
2018-12-13T00:53:04.785Z,6.437376
2018-12-13T00:53:17.125Z,8.04672
2018-12-13T00:53:29.471Z,8.04672
2018-12-13T00:53:41.824Z,8.04672
2018-12-13T00:53:54.170Z,8.04672
2018-12-13T00:54:06.524Z,1.609344
2018-12-13T00:54:19.009Z,3.218688
2018-12-13T00:54:31.361Z,3.218688
2018-12-13T00:54:43.719Z,8.04672
2018-12-13T00:54:56.245Z,8.04672
2018-12-13T00:55:08.603Z,3.218688
2018-12-13T00:55:20.961Z,3.218688
2018-12-13T00:55:33.370Z,8.04672
2018-12-13T00:55:45.730Z,8.04672
2018-12-13T00:55:58.081Z,8.04672
2018-12-13T00:56:10.417Z,3.218688
2018-12-13T00:56:22.749Z,3.218688
2018-12-13T00:56:35.099Z,3.218688
2018-12-13T00:56:47.775Z,6.437376
2018-12-13T00:57:00.271Z,6.437376
2018-12-13T00:57:12.607Z,6.437376
2018-12-13T00:57:24.961Z,9.656064
2018-12-13T00:57:37.378Z,9.656064
2018-12-13T00:57:49.714Z,9.656064
2018-12-13T00:58:02.069Z,9.656064
2018-12-13T00:58:14.420Z,3.218688
2018-12-13T00:58:26.765Z,3.218688
2018-12-13T00:58:39.115Z,3.218688
2018-12-13T00:58:51.732Z,3.218688
2018-12-13T00:59:04.069Z,3.218688
2018-12-13T00:59:16.415Z,3.218688
2018-12-13T00:59:28.764Z,3.218688
2018-12-13T00:59:41.115Z,3.218688
2018-12-13T00:59:53.464Z,3.218688
2018-12-13T01:00:05.844Z,1.609344
2018-12-13T01:00:18.244Z,1.609344
2018-12-13T01:00:30.601Z,1.609344
2018-12-13T01:00:42.965Z,3.218688
2018-12-13T01:00:55.314Z,3.218688
2018-12-13T01:01:07.677Z,0
2018-12-13T01:01:20.028Z,1.609344
2018-12-13T01:01:32.537Z,3.218688
2018-12-13T01:01:44.888Z,3.218688
2018-12-13T01:01:57.238Z,3.218688
2018-12-13T01:02:09.609Z,1.609344
2018-12-13T01:02:21.958Z,1.609344
2018-12-13T01:02:34.296Z,3.218688
2018-12-13T01:02:46.716Z,3.218688
2018-12-13T01:02:59.077Z,3.218688
2018-12-13T01:03:11.454Z,3.218688
2018-12-13T01:03:23.867Z,4.828032
2018-12-13T01:03:36.279Z,6.437376
2018-12-13T01:03:48.630Z,8.04672
2018-12-13T01:04:01.531Z,8.04672
2018-12-13T01:04:13.891Z,3.218688
2018-12-13T01:04:26.265Z,6.437376
2018-12-13T01:04:38.621Z,6.437376
2018-12-13T01:04:50.970Z,6.437376
2018-12-13T01:05:03.298Z,6.437376
2018-12-13T01:05:15.641Z,4.828032
2018-12-13T01:05:28.109Z,4.828032
2018-12-13T01:05:40.685Z,4.828032
2018-12-13T01:05:53.241Z,4.828032
2018-12-13T01:06:05.682Z,1.609344
2018-12-13T01:06:18.062Z,6.437376
2018-12-13T01:06:30.402Z,6.437376
2018-12-13T01:06:48.348Z,6.437376
2018-12-13T01:07:00.692Z,6.437376
2018-12-13T01:07:13.046Z,4.828032
2018-12-13T01:07:25.454Z,4.828032
2018-12-13T01:07:37.823Z,4.828032
2018-12-13T01:07:50.227Z,4.828032
2018-12-13T01:08:02.563Z,4.828032
2018-12-13T01:08:14.928Z,3.218688
2018-12-13T01:08:27.289Z,3.218688
2018-12-13T01:08:39.642Z,6.437376
2018-12-13T01:08:51.992Z,9.656064
2018-12-13T01:09:04.339Z,9.656064
2018-12-13T01:09:16.687Z,6.437376
2018-12-13T01:09:29.052Z,6.437376
2018-12-13T01:09:41.405Z,6.437376
2018-12-13T01:09:53.826Z,6.437376
2018-12-13T01:10:06.179Z,1.609344
2018-12-13T01:10:18.530Z,1.609344
2018-12-13T01:10:30.869Z,1.609344
2018-12-13T01:10:44.534Z,1.609344
2018-12-13T01:10:57.013Z,3.218688
2018-12-13T01:11:09.368Z,4.828032
2018-12-13T01:11:21.715Z,6.437376
2018-12-13T01:11:34.065Z,6.437376
2018-12-13T01:11:46.413Z,8.04672
2018-12-13T01:11:58.787Z,9.656064
2018-12-13T01:12:11.214Z,4.828032
2018-12-13T01:12:23.558Z,8.04672
2018-12-13T01:12:35.912Z,8.04672
2018-12-13T01:12:48.276Z,8.04672
2018-12-13T01:13:00.661Z,8.04672
2018-12-13T01:13:13.021Z,8.04672
2018-12-13T01:13:25.412Z,8.04672
2018-12-13T01:13:37.791Z,8.04672
2018-12-13T01:13:50.151Z,8.04672
2018-12-13T01:14:02.521Z,8.04672
2018-12-13T01:14:15.057Z,6.437376
2018-12-13T01:14:27.401Z,6.437376
2018-12-13T01:14:39.732Z,8.04672
2018-12-13T01:14:52.083Z,8.04672
2018-12-13T01:15:04.484Z,8.04672
2018-12-13T01:15:16.827Z,8.04672
2018-12-13T01:15:29.162Z,8.04672
2018-12-13T01:15:41.491Z,8.04672
2018-12-13T01:15:53.827Z,8.04672
2018-12-13T01:16:06.313Z,3.218688
2018-12-13T01:16:18.659Z,4.828032
2018-12-13T01:16:31.023Z,4.828032
2018-12-13T01:16:43.381Z,4.828032
2018-12-13T01:16:55.733Z,4.828032
2018-12-13T01:17:08.074Z,3.218688
2018-12-13T01:17:20.416Z,6.437376
2018-12-13T01:17:33.072Z,8.04672
2018-12-13T01:17:45.414Z,8.04672
2018-12-13T01:17:57.766Z,9.656064
2018-12-13T01:18:10.118Z,6.437376
2018-12-13T01:18:22.601Z,6.437376
2018-12-13T01:18:34.951Z,6.437376
2018-12-13T01:18:47.464Z,6.437376
2018-12-13T01:18:59.820Z,6.437376
2018-12-13T01:19:12.171Z,6.437376
2018-12-13T01:19:24.525Z,6.437376
2018-12-13T01:19:36.869Z,6.437376
2018-12-13T01:19:49.257Z,6.437376
2018-12-13T01:20:01.620Z,8.04672
2018-12-13T01:20:13.958Z,6.437376
2018-12-13T01:20:26.375Z,6.437376
2018-12-13T01:20:38.714Z,6.437376
2018-12-13T01:20:51.838Z,8.04672
2018-12-13T01:21:04.266Z,1.609344
2018-12-13T01:21:22.865Z,6.437376
2018-12-13T01:21:35.226Z,6.437376
2018-12-13T01:21:47.566Z,6.437376
2018-12-13T01:21:59.916Z,6.437376
2018-12-13T01:22:12.275Z,4.828032
2018-12-13T01:22:24.606Z,8.04672
2018-12-13T01:22:36.979Z,8.04672
2018-12-13T01:22:49.344Z,8.04672
2018-12-13T01:23:01.706Z,8.04672
2018-12-13T01:23:14.056Z,3.218688
2018-12-13T01:23:26.427Z,6.437376
2018-12-13T01:23:38.821Z,6.437376
2018-12-13T01:23:51.175Z,6.437376
2018-12-13T01:24:03.525Z,6.437376
2018-12-13T01:24:16.080Z,6.437376
2018-12-13T01:24:28.411Z,6.437376
2018-12-13T01:24:40.767Z,6.437376
2018-12-13T01:24:53.132Z,6.437376
2018-12-13T01:25:05.483Z,3.218688
2018-12-13T01:25:17.893Z,3.218688
2018-12-13T01:25:30.238Z,3.218688
2018-12-13T01:25:42.592Z,3.218688
2018-12-13T01:25:54.934Z,3.218688
2018-12-13T01:26:07.275Z,1.609344
2018-12-13T01:26:19.640Z,1.609344
2018-12-13T01:26:32.149Z,1.609344
2018-12-13T01:26:44.482Z,3.218688
2018-12-13T01:26:56.977Z,6.437376
2018-12-13T01:27:09.330Z,6.437376
2018-12-13T01:27:21.692Z,9.656064
2018-12-13T01:27:34.040Z,9.656064
2018-12-13T01:27:46.439Z,9.656064
2018-12-13T01:27:58.794Z,9.656064
2018-12-13T01:28:11.150Z,4.828032
2018-12-13T01:28:23.502Z,6.437376
2018-12-13T01:28:35.849Z,6.437376
2018-12-13T01:28:48.213Z,8.04672
2018-12-13T01:29:00.564Z,8.04672
2018-12-13T01:29:12.914Z,1.609344
2018-12-13T01:29:25.274Z,3.218688
2018-12-13T01:29:37.654Z,3.218688
2018-12-13T01:29:50.167Z,6.437376
2018-12-13T01:30:02.519Z,12.874752
2018-12-13T01:30:14.864Z,12.874752
2018-12-13T01:30:27.353Z,12.874752
2018-12-13T01:30:40.054Z,12.874752
2018-12-13T01:30:52.419Z,12.874752
2018-12-13T01:31:04.775Z,6.437376
2018-12-13T01:31:17.107Z,6.437376
2018-12-13T01:31:29.438Z,6.437376
2018-12-13T01:31:41.809Z,6.437376
2018-12-13T01:31:54.156Z,6.437376
2018-12-13T01:32:06.504Z,1.609344
2018-12-13T01:32:18.850Z,3.218688
2018-12-13T01:32:31.199Z,3.218688
2018-12-13T01:32:43.702Z,3.218688
2018-12-13T01:32:56.101Z,3.218688
2018-12-13T01:33:08.461Z,3.218688
2018-12-13T01:33:20.952Z,4.828032
2018-12-13T01:33:33.310Z,4.828032
2018-12-13T01:33:45.812Z,4.828032
2018-12-13T01:33:58.189Z,6.437376
2018-12-13T01:34:10.585Z,8.04672
2018-12-13T01:34:22.947Z,8.04672
2018-12-13T01:34:35.309Z,8.04672
2018-12-13T01:34:47.669Z,8.04672
2018-12-13T01:35:00.000Z,8.04672
2018-12-13T01:35:12.345Z,6.437376
2018-12-13T01:35:24.683Z,6.437376
2018-12-13T01:35:37.046Z,6.437376
2018-12-13T01:35:49.449Z,6.437376
2018-12-13T01:36:01.812Z,6.437376
2018-12-13T01:36:14.178Z,3.218688
2018-12-13T01:36:26.529Z,4.828032
2018-12-13T01:36:38.866Z,4.828032
2018-12-13T01:36:57.010Z,4.828032
2018-12-13T01:37:09.359Z,1.609344
2018-12-13T01:37:21.718Z,4.828032
2018-12-13T01:37:34.260Z,6.437376
2018-12-13T01:37:46.600Z,8.04672
2018-12-13T01:37:59.139Z,8.04672
2018-12-13T01:38:11.476Z,9.656064
2018-12-13T01:38:23.857Z,9.656064
2018-12-13T01:38:36.201Z,9.656064
2018-12-13T01:38:48.544Z,9.656064
2018-12-13T01:39:00.894Z,9.656064
2018-12-13T01:39:13.248Z,6.437376
2018-12-13T01:39:25.582Z,6.437376
2018-12-13T01:39:37.913Z,6.437376
2018-12-13T01:39:50.401Z,6.437376
2018-12-13T01:40:03.050Z,6.437376
2018-12-13T01:40:15.389Z,9.656064
2018-12-13T01:40:27.753Z,9.656064
2018-12-13T01:40:40.105Z,9.656064
2018-12-13T01:40:52.456Z,9.656064
2018-12-13T01:41:04.981Z,3.218688
2018-12-13T01:41:17.481Z,6.437376
2018-12-13T01:41:29.899Z,6.437376
2018-12-13T01:41:42.238Z,6.437376
2018-12-13T01:41:54.602Z,8.04672
2018-12-13T01:42:06.946Z,6.437376
2018-12-13T01:42:19.296Z,6.437376
2018-12-13T01:42:31.691Z,6.437376
2018-12-13T01:42:44.074Z,6.437376
2018-12-13T01:42:56.414Z,6.437376
2018-12-13T01:43:08.755Z,3.218688
2018-12-13T01:43:21.686Z,9.656064
2018-12-13T01:43:34.032Z,9.656064
2018-12-13T01:43:46.409Z,9.656064
2018-12-13T01:43:58.743Z,9.656064
2018-12-13T01:44:11.104Z,11.265408
2018-12-13T01:44:23.462Z,11.265408
2018-12-13T01:44:35.792Z,11.265408
2018-12-13T01:44:48.191Z,11.265408
2018-12-13T01:45:00.580Z,11.265408
2018-12-13T01:45:12.923Z,6.437376
2018-12-13T01:45:25.272Z,6.437376
2018-12-13T01:45:37.612Z,6.437376
2018-12-13T01:45:49.963Z,6.437376
2018-12-13T01:46:02.305Z,6.437376
2018-12-13T01:46:14.683Z,6.437376
2018-12-13T01:46:27.040Z,6.437376
2018-12-13T01:46:39.386Z,6.437376
2018-12-13T01:46:51.719Z,6.437376
2018-12-13T01:47:04.068Z,3.218688
2018-12-13T01:47:16.407Z,4.828032
2018-12-13T01:47:28.910Z,4.828032
2018-12-13T01:47:41.260Z,4.828032
2018-12-13T01:47:53.622Z,4.828032
2018-12-13T01:48:05.981Z,4.828032
2018-12-13T01:48:18.333Z,4.828032
2018-12-13T01:48:30.695Z,4.828032
2018-12-13T01:48:43.042Z,6.437376
2018-12-13T01:48:55.556Z,6.437376
2018-12-13T01:49:07.894Z,6.437376
2018-12-13T01:49:20.276Z,6.437376
2018-12-13T01:49:32.617Z,6.437376
2018-12-13T01:49:44.959Z,6.437376
2018-12-13T01:49:57.304Z,6.437376
2018-12-13T01:50:09.911Z,3.218688
2018-12-13T01:50:22.285Z,4.828032
2018-12-13T01:50:34.640Z,4.828032
2018-12-13T01:50:46.993Z,4.828032
2018-12-13T01:50:59.394Z,4.828032
2018-12-13T01:51:11.728Z,3.218688
2018-12-13T01:51:24.077Z,3.218688
2018-12-13T01:51:36.433Z,3.218688
2018-12-13T01:51:48.787Z,3.218688
2018-12-13T01:52:01.167Z,3.218688
2018-12-13T01:52:13.713Z,1.609344
2018-12-13T01:52:26.062Z,1.609344
2018-12-13T01:52:38.402Z,1.609344
2018-12-13T01:52:50.743Z,4.828032
2018-12-13T01:53:03.085Z,1.609344
2018-12-13T01:53:15.505Z,3.218688
2018-12-13T01:53:27.846Z,8.04672
2018-12-13T01:53:40.184Z,8.04672
2018-12-13T01:53:52.625Z,8.04672
2018-12-13T01:54:04.982Z,3.218688
2018-12-13T01:54:17.605Z,3.218688
2018-12-13T01:54:29.942Z,3.218688
2018-12-13T01:54:42.303Z,3.218688
2018-12-13T01:54:54.683Z,3.218688
2018-12-13T01:55:07.158Z,1.609344
2018-12-13T01:55:19.545Z,3.218688
2018-12-13T01:55:31.951Z,3.218688
2018-12-13T01:55:44.340Z,3.218688
2018-12-13T01:55:56.676Z,3.218688
2018-12-13T01:56:09.016Z,1.609344
2018-12-13T01:56:21.376Z,1.609344
2018-12-13T01:56:33.733Z,3.218688
2018-12-13T01:56:46.221Z,8.04672
2018-12-13T01:56:58.772Z,8.04672
2018-12-13T01:57:11.115Z,8.04672
2018-12-13T01:57:23.480Z,8.04672
2018-12-13T01:57:35.832Z,8.04672
2018-12-13T01:57:48.191Z,8.04672
2018-12-13T01:58:01.217Z,8.04672
2018-12-13T01:58:13.730Z,1.609344
2018-12-13T01:58:26.124Z,1.609344
2018-12-13T01:58:38.480Z,3.218688
2018-12-13T01:58:50.851Z,3.218688
2018-12-13T01:59:03.213Z,3.218688
2018-12-13T01:59:15.556Z,3.218688
2018-12-13T01:59:27.926Z,3.218688
2018-12-13T01:59:40.255Z,3.218688
2018-12-13T01:59:52.608Z,4.828032
2018-12-13T02:00:05.015Z,6.437376
2018-12-13T02:00:17.399Z,6.437376
2018-12-13T02:00:29.801Z,6.437376
2018-12-13T02:00:42.179Z,6.437376
2018-12-13T02:00:54.543Z,6.437376
2018-12-13T02:01:06.949Z,3.218688
2018-12-13T02:01:19.333Z,3.218688
2018-12-13T02:01:31.736Z,3.218688
2018-12-13T02:01:44.318Z,3.218688
2018-12-13T02:01:56.663Z,6.437376
2018-12-13T02:02:09.019Z,6.437376
2018-12-13T02:02:21.374Z,6.437376
2018-12-13T02:02:33.723Z,6.437376
2018-12-13T02:02:46.070Z,6.437376
2018-12-13T02:02:58.456Z,6.437376
2018-12-13T02:03:10.808Z,4.828032
2018-12-13T02:03:23.163Z,6.437376
2018-12-13T02:03:35.521Z,6.437376
2018-12-13T02:03:47.943Z,6.437376
2018-12-13T02:04:00.297Z,6.437376
2018-12-13T02:04:12.655Z,3.218688
2018-12-13T02:04:25.045Z,3.218688
2018-12-13T02:04:37.396Z,3.218688
2018-12-13T02:04:49.759Z,3.218688
2018-12-13T02:05:02.112Z,3.218688
2018-12-13T02:05:14.464Z,3.218688
2018-12-13T02:05:26.970Z,6.437376
2018-12-13T02:05:39.327Z,6.437376
2018-12-13T02:05:51.836Z,6.437376
2018-12-13T02:06:04.192Z,1.609344
2018-12-13T02:06:16.553Z,1.609344
2018-12-13T02:06:28.915Z,3.218688
2018-12-13T02:06:41.269Z,3.218688
2018-12-13T02:06:59.968Z,3.218688
2018-12-13T02:07:12.321Z,1.609344
2018-12-13T02:07:24.674Z,1.609344
2018-12-13T02:07:37.010Z,3.218688
2018-12-13T02:07:49.350Z,3.218688
2018-12-13T02:08:01.723Z,3.218688
2018-12-13T02:08:14.070Z,3.218688
2018-12-13T02:08:26.435Z,3.218688
2018-12-13T02:08:38.780Z,3.218688
2018-12-13T02:08:51.136Z,3.218688
2018-12-13T02:09:03.560Z,1.609344
2018-12-13T02:09:15.910Z,3.218688
2018-12-13T02:09:28.266Z,3.218688
2018-12-13T02:09:40.608Z,3.218688
2018-12-13T02:09:52.961Z,4.828032
2018-12-13T02:10:05.310Z,6.437376
2018-12-13T02:10:17.671Z,8.04672
2018-12-13T02:10:30.026Z,8.04672
2018-12-13T02:10:42.361Z,8.04672
2018-12-13T02:10:54.701Z,8.04672
2018-12-13T02:11:07.052Z,4.828032
2018-12-13T02:11:19.464Z,4.828032
2018-12-13T02:11:31.876Z,4.828032
2018-12-13T02:11:44.227Z,4.828032
2018-12-13T02:11:56.604Z,4.828032
2018-12-13T02:12:09.088Z,3.218688
2018-12-13T02:12:21.427Z,3.218688
2018-12-13T02:12:33.758Z,4.828032
2018-12-13T02:12:46.158Z,4.828032
2018-12-13T02:12:58.488Z,4.828032
2018-12-13T02:13:10.850Z,1.609344
2018-12-13T02:13:23.188Z,1.609344
2018-12-13T02:13:35.533Z,1.609344
2018-12-13T02:13:47.875Z,3.218688
2018-12-13T02:14:00.226Z,3.218688
2018-12-13T02:14:12.827Z,1.609344
2018-12-13T02:14:25.205Z,4.828032
2018-12-13T02:14:37.569Z,4.828032
2018-12-13T02:14:49.958Z,4.828032
2018-12-13T02:15:02.300Z,4.828032
2018-12-13T02:15:14.657Z,3.218688
2018-12-13T02:15:27.012Z,4.828032
2018-12-13T02:15:39.356Z,4.828032
2018-12-13T02:15:51.703Z,4.828032
2018-12-13T02:16:04.210Z,3.218688
2018-12-13T02:16:16.566Z,3.218688
2018-12-13T02:16:28.907Z,4.828032
2018-12-13T02:16:41.253Z,6.437376
2018-12-13T02:16:53.596Z,6.437376
2018-12-13T02:17:05.963Z,1.609344
2018-12-13T02:17:18.323Z,1.609344
2018-12-13T02:17:30.817Z,1.609344
2018-12-13T02:17:43.153Z,1.609344
2018-12-13T02:17:55.502Z,1.609344
2018-12-13T02:18:07.873Z,3.218688
2018-12-13T02:18:20.350Z,3.218688
2018-12-13T02:18:32.756Z,3.218688
2018-12-13T02:18:45.179Z,3.218688
2018-12-13T02:18:57.591Z,3.218688
2018-12-13T02:19:09.925Z,6.437376
2018-12-13T02:19:22.268Z,6.437376
2018-12-13T02:19:34.616Z,6.437376
2018-12-13T02:19:46.964Z,6.437376
2018-12-13T02:19:59.318Z,6.437376
2018-12-13T02:20:11.668Z,6.437376
2018-12-13T02:20:24.012Z,6.437376
2018-12-13T02:20:36.357Z,6.437376
2018-12-13T02:20:48.692Z,6.437376
2018-12-13T02:21:01.048Z,6.437376
2018-12-13T02:21:13.402Z,6.437376
2018-12-13T02:21:25.748Z,6.437376
2018-12-13T02:21:38.094Z,6.437376
2018-12-13T02:21:50.447Z,6.437376
2018-12-13T02:22:02.802Z,6.437376
2018-12-13T02:22:15.156Z,6.437376
2018-12-13T02:22:27.487Z,6.437376
2018-12-13T02:22:40.088Z,6.437376
2018-12-13T02:22:52.421Z,6.437376
2018-12-13T02:23:04.764Z,6.437376
2018-12-13T02:23:17.109Z,8.04672
2018-12-13T02:23:29.454Z,8.04672
2018-12-13T02:23:41.801Z,8.04672
2018-12-13T02:23:54.166Z,8.04672
2018-12-13T02:24:06.532Z,4.828032
2018-12-13T02:24:18.866Z,4.828032
2018-12-13T02:24:31.337Z,4.828032
2018-12-13T02:24:43.678Z,4.828032
2018-12-13T02:24:56.011Z,4.828032
2018-12-13T02:25:08.368Z,3.218688
2018-12-13T02:25:20.768Z,3.218688
2018-12-13T02:25:33.107Z,4.828032
2018-12-13T02:25:45.461Z,4.828032
2018-12-13T02:25:57.800Z,4.828032
2018-12-13T02:26:10.156Z,8.04672
2018-12-13T02:26:22.610Z,8.04672
2018-12-13T02:26:34.948Z,8.04672
2018-12-13T02:26:47.284Z,8.04672
2018-12-13T02:26:59.624Z,8.04672